createdAt,value
2023-04-25T00:00:54.732Z,100.00
2023-04-25T00:03:22.212Z,100.00
2023-04-25T00:05:49.184Z,100.00
2023-04-25T00:08:15.797Z,100.00
2023-04-25T00:10:42.360Z,100.00
2023-04-25T00:13:09.262Z,100.00
2023-04-25T00:15:37.015Z,100.00
2023-04-25T00:18:03.636Z,100.00
2023-04-25T00:20:30.980Z,100.00
2023-04-25T00:22:57.472Z,100.00
2023-04-25T00:25:24.422Z,100.00
2023-04-25T00:27:50.968Z,100.00
2023-04-25T00:30:17.545Z,100.00
2023-04-25T00:32:44.270Z,100.00
2023-04-25T00:35:10.954Z,100.00
2023-04-25T00:37:37.617Z,100.00
2023-04-25T00:40:07.100Z,100.00
2023-04-25T00:42:33.639Z,100.00
2023-04-25T00:45:00.400Z,100.00
2023-04-25T00:47:26.884Z,100.00
2023-04-25T00:49:54.318Z,100.00
2023-04-25T00:52:21.466Z,100.00
2023-04-25T00:54:48.272Z,100.00
2023-04-25T00:57:14.803Z,100.00
2023-04-25T00:59:45.931Z,100.00
2023-04-25T01:02:12.511Z,100.00
2023-04-25T01:04:39.770Z,100.00
2023-04-25T01:07:06.235Z,100.00
2023-04-25T01:09:33.095Z,100.00
2023-04-25T01:11:59.815Z,100.00
2023-04-25T01:14:26.266Z,100.00
2023-04-25T01:16:54.026Z,100.00
2023-04-25T01:19:20.926Z,100.00
2023-04-25T01:21:47.713Z,100.00
2023-04-25T01:24:15.018Z,100.00
2023-04-25T01:26:45.953Z,100.00
2023-04-25T01:29:12.627Z,100.00
2023-04-25T01:31:39.395Z,100.00
2023-04-25T01:34:06.238Z,100.00
2023-04-25T01:36:33.132Z,100.00
2023-04-25T01:39:01.756Z,100.00
2023-04-25T01:41:28.488Z,100.00
2023-04-25T01:43:55.421Z,100.00
2023-04-25T01:46:22.224Z,100.00
2023-04-25T01:48:49.219Z,100.00
2023-04-25T01:51:16.350Z,100.00
2023-04-25T01:53:43.549Z,100.00
2023-04-25T01:56:10.109Z,100.00
2023-04-25T01:58:36.815Z,100.00
2023-04-25T02:01:08.707Z,100.00
2023-04-25T02:03:44.419Z,100.00
2023-04-25T02:06:19.999Z,100.00
2023-04-25T02:08:48.062Z,100.00
2023-04-25T02:11:14.787Z,100.00
2023-04-25T02:13:47.483Z,100.00
2023-04-25T02:16:34.295Z,100.00
2023-04-25T02:19:01.855Z,100.00
2023-04-25T02:21:31.466Z,100.00
2023-04-25T02:23:58.099Z,100.00
2023-04-25T02:26:25.158Z,100.00
2023-04-25T02:28:52.433Z,100.00
2023-04-25T02:31:19.860Z,100.00
2023-04-25T02:33:46.554Z,100.00
2023-04-25T02:36:13.065Z,100.00
2023-04-25T02:38:39.806Z,100.00
2023-04-25T02:41:06.362Z,100.00
2023-04-25T02:43:32.949Z,100.00
2023-04-25T02:45:59.408Z,100.00
2023-04-25T02:48:25.932Z,100.00
2023-04-25T02:50:52.429Z,100.00
2023-04-25T02:53:18.935Z,100.00
2023-04-25T02:55:49.483Z,100.00
2023-04-25T02:58:16.572Z,100.00
2023-04-25T03:00:46.654Z,100.00
2023-04-25T03:03:13.401Z,100.00
2023-04-25T03:05:40.088Z,100.00
2023-04-25T03:08:07.019Z,100.00
2023-04-25T03:10:34.646Z,100.00
2023-04-25T03:13:05.432Z,100.00
2023-04-25T03:15:32.248Z,100.00
2023-04-25T03:17:58.756Z,100.00
2023-04-25T03:20:25.279Z,100.00
2023-04-25T03:22:52.427Z,100.00
2023-04-25T03:25:19.038Z,100.00
2023-04-25T03:27:46.254Z,100.00
2023-04-25T03:30:12.847Z,100.00
2023-04-25T03:32:41.158Z,100.00
2023-04-25T03:35:07.825Z,100.00
2023-04-25T03:37:35.331Z,100.00
2023-04-25T03:40:01.974Z,100.00
2023-04-25T03:42:47.044Z,100.00
2023-04-25T03:45:13.629Z,100.00
2023-04-25T03:47:41.177Z,100.00
2023-04-25T03:50:08.014Z,100.00
2023-04-25T03:52:34.619Z,100.00
2023-04-25T03:55:01.133Z,100.00
2023-04-25T03:57:28.514Z,100.00
2023-04-25T03:59:55.600Z,100.00
2023-04-25T04:02:23.392Z,100.00
2023-04-25T04:04:52.582Z,100.00
2023-04-25T04:07:19.633Z,100.00
2023-04-25T04:09:48.099Z,100.00
2023-04-25T04:12:21.012Z,100.00
2023-04-25T04:14:47.594Z,100.00
2023-04-25T04:17:14.116Z,100.00
2023-04-25T04:19:40.801Z,100.00
2023-04-25T04:22:13.920Z,100.00
2023-04-25T04:24:40.864Z,100.00
2023-04-25T04:27:08.470Z,100.00
2023-04-25T04:29:59.975Z,100.00
2023-04-25T04:32:45.885Z,100.00
2023-04-25T04:35:12.505Z,100.00
2023-04-25T04:37:40.666Z,100.00
2023-04-25T04:40:09.836Z,100.00
2023-04-25T04:42:44.029Z,100.00
2023-04-25T04:45:26.381Z,100.00
2023-04-25T04:48:16.122Z,100.00
2023-04-25T04:50:59.329Z,100.00
2023-04-25T04:53:45.777Z,100.00
2023-04-25T04:56:26.325Z,100.00
2023-04-25T04:58:58.412Z,100.00
2023-04-25T05:01:57.000Z,100.00
2023-04-25T05:04:42.219Z,100.00
2023-04-25T05:07:31.947Z,100.00
2023-04-25T05:10:07.440Z,100.00
2023-04-25T05:12:43.208Z,100.00
2023-04-25T05:15:28.013Z,100.00
2023-04-25T05:18:14.811Z,100.00
2023-04-25T05:21:16.579Z,100.00
2023-04-25T05:23:52.728Z,100.00
2023-04-25T05:26:54.195Z,100.00
2023-04-25T05:29:27.634Z,100.00
2023-04-25T05:32:14.437Z,100.00
2023-04-25T05:34:41.272Z,100.00
2023-04-25T05:37:14.359Z,100.00
2023-04-25T05:39:52.637Z,100.00
2023-04-25T05:42:33.518Z,100.00
2023-04-25T05:45:29.297Z,100.00
2023-04-25T05:48:04.458Z,100.00
2023-04-25T05:51:03.165Z,100.00
2023-04-25T05:53:52.683Z,100.00
2023-04-25T05:56:19.549Z,100.00
2023-04-25T05:58:51.519Z,100.00
2023-04-25T06:01:18.009Z,100.00
2023-04-25T06:03:45.110Z,100.00
2023-04-25T06:06:14.817Z,100.00
2023-04-25T06:08:41.698Z,100.00
2023-04-25T06:11:11.294Z,100.00
2023-04-25T06:13:37.993Z,99.74
2023-04-25T06:16:04.801Z,98.11
2023-04-25T06:18:31.621Z,94.78
2023-04-25T06:20:58.403Z,96.84
2023-04-25T06:23:26.042Z,95.57
2023-04-25T06:25:58.285Z,93.06
2023-04-25T06:28:26.418Z,90.67
2023-04-25T06:30:52.933Z,88.28
2023-04-25T06:33:21.271Z,85.05
2023-04-25T06:35:48.185Z,83.39
2023-04-25T06:38:17.846Z,83.25
2023-04-25T06:40:48.443Z,85.29
2023-04-25T06:43:15.286Z,82.84
2023-04-25T06:45:48.653Z,84.08
2023-04-25T06:48:16.545Z,80.57
2023-04-25T06:50:43.159Z,78.79
2023-04-25T06:53:09.953Z,79.30
2023-04-25T06:55:37.047Z,78.41
2023-04-25T06:58:12.798Z,72.56
2023-04-25T07:01:02.125Z,72.81
2023-04-25T07:03:28.907Z,74.90
2023-04-25T07:06:02.228Z,71.80
2023-04-25T07:08:30.005Z,70.24
2023-04-25T07:10:58.074Z,68.62
2023-04-25T07:13:24.607Z,69.69
2023-04-25T07:15:51.164Z,68.80
2023-04-25T07:18:19.870Z,67.85
2023-04-25T07:20:47.146Z,64.55
2023-04-25T07:23:13.643Z,61.31
2023-04-25T07:25:40.468Z,63.22
2023-04-25T07:28:07.632Z,58.04
2023-04-25T07:30:35.762Z,58.66
2023-04-25T07:33:04.121Z,62.25
2023-04-25T07:35:30.653Z,62.00
2023-04-25T07:37:57.326Z,60.46
2023-04-25T07:40:24.783Z,56.34
2023-04-25T07:42:56.226Z,56.79
2023-04-25T07:45:29.819Z,52.41
2023-04-25T07:47:56.530Z,54.63
2023-04-25T07:50:24.549Z,54.35
2023-04-25T07:52:51.094Z,54.01
2023-04-25T07:55:24.105Z,51.47
2023-04-25T07:57:59.572Z,51.08
2023-04-25T08:00:29.662Z,53.71
2023-04-25T08:03:15.680Z,56.50
2023-04-25T08:05:42.990Z,56.77
2023-04-25T08:08:09.933Z,56.65
2023-04-25T08:10:36.529Z,50.48
2023-04-25T08:13:03.558Z,50.03
2023-04-25T08:15:30.336Z,46.61
2023-04-25T08:17:57.433Z,44.34
2023-04-25T08:20:23.995Z,43.77
2023-04-25T08:22:53.153Z,43.90
2023-04-25T08:25:29.515Z,44.40
2023-04-25T08:27:57.030Z,44.19
2023-04-25T08:30:23.820Z,40.25
2023-04-25T08:32:51.509Z,39.52
2023-04-25T08:35:40.950Z,38.30
2023-04-25T08:38:08.050Z,37.13
2023-04-25T08:40:38.401Z,36.46
2023-04-25T08:43:12.837Z,34.98
2023-04-25T08:45:44.031Z,38.33
2023-04-25T08:48:17.320Z,36.10
2023-04-25T08:50:46.998Z,38.62
2023-04-25T08:53:19.854Z,38.44
2023-04-25T08:55:47.702Z,38.73
2023-04-25T08:58:14.554Z,38.19
2023-04-25T09:00:41.623Z,38.58
2023-04-25T09:03:08.329Z,37.62
2023-04-25T09:05:35.614Z,38.08
2023-04-25T09:08:02.897Z,38.61
2023-04-25T09:10:29.470Z,38.05
2023-04-25T09:13:11.490Z,36.55
2023-04-25T09:15:59.056Z,36.15
2023-04-25T09:18:50.244Z,35.99
2023-04-25T09:21:17.509Z,37.06
2023-04-25T09:23:47.833Z,35.87
2023-04-25T09:26:16.305Z,36.26
2023-04-25T09:28:44.024Z,37.08
2023-04-25T09:31:11.171Z,36.32
2023-04-25T09:33:43.187Z,34.84
2023-04-25T09:36:12.061Z,35.22
2023-04-25T09:38:51.641Z,34.62
2023-04-25T09:41:38.810Z,35.73
2023-04-25T09:44:05.875Z,36.39
2023-04-25T09:46:38.842Z,36.87
2023-04-25T09:49:17.489Z,35.16
2023-04-25T09:52:20.636Z,35.27
2023-04-25T09:55:22.373Z,36.00
2023-04-25T09:57:49.978Z,36.51
2023-04-25T10:00:17.256Z,35.27
2023-04-25T10:02:44.774Z,34.85
2023-04-25T10:05:19.067Z,34.62
2023-04-25T10:07:45.637Z,34.32
2023-04-25T10:10:16.788Z,34.19
2023-04-25T10:12:45.119Z,31.65
2023-04-25T10:15:11.922Z,32.15
2023-04-25T10:17:39.566Z,32.81
2023-04-25T10:20:10.781Z,30.62
2023-04-25T10:22:39.150Z,32.52
2023-04-25T10:25:06.221Z,30.91
2023-04-25T10:27:32.888Z,31.40
2023-04-25T10:30:04.850Z,30.91
2023-04-25T10:32:32.375Z,28.68
2023-04-25T10:34:59.082Z,28.41
2023-04-25T10:37:25.548Z,28.17
2023-04-25T10:39:54.231Z,27.52
2023-04-25T10:42:20.741Z,27.28
2023-04-25T10:45:02.101Z,26.41
2023-04-25T10:47:38.157Z,27.04
2023-04-25T10:50:09.170Z,26.60
2023-04-25T10:52:35.805Z,27.42
2023-04-25T10:55:04.664Z,30.57
2023-04-25T10:57:31.154Z,25.90
2023-04-25T11:00:10.355Z,25.26
2023-04-25T11:02:48.094Z,27.18
2023-04-25T11:05:30.592Z,30.53
2023-04-25T11:08:07.803Z,29.01
2023-04-25T11:10:37.652Z,30.14
2023-04-25T11:13:04.419Z,30.90
2023-04-25T11:15:31.123Z,28.67
2023-04-25T11:17:57.742Z,30.92
2023-04-25T11:20:26.927Z,32.29
2023-04-25T11:22:53.514Z,31.67
2023-04-25T11:25:21.128Z,31.15
2023-04-25T11:27:52.245Z,33.14
2023-04-25T11:30:19.802Z,35.94
2023-04-25T11:32:46.531Z,33.89
2023-04-25T11:35:13.603Z,33.39
2023-04-25T11:37:41.030Z,34.85
2023-04-25T11:40:08.319Z,33.29
2023-04-25T11:42:34.880Z,33.95
2023-04-25T11:45:01.369Z,33.31
2023-04-25T11:47:31.546Z,39.79
2023-04-25T11:50:02.051Z,41.57
2023-04-25T11:52:41.776Z,45.04
2023-04-25T11:55:13.718Z,47.21
2023-04-25T11:57:41.172Z,50.76
2023-04-25T12:00:09.636Z,55.06
2023-04-25T12:02:41.270Z,52.32
2023-04-25T12:05:29.380Z,53.18
2023-04-25T12:07:56.086Z,52.40
2023-04-25T12:10:22.887Z,51.69
2023-04-25T12:12:49.455Z,51.72
2023-04-25T12:15:23.869Z,52.25
2023-04-25T12:17:51.411Z,51.08
2023-04-25T12:20:22.223Z,47.61
2023-04-25T12:22:49.778Z,46.41
2023-04-25T12:25:35.032Z,46.07
2023-04-25T12:28:20.582Z,44.08
2023-04-25T12:31:04.210Z,44.27
2023-04-25T12:33:31.976Z,44.19
2023-04-25T12:35:59.169Z,45.37
2023-04-25T12:38:26.607Z,42.87
2023-04-25T12:40:53.363Z,41.27
2023-04-25T12:43:20.092Z,39.45
2023-04-25T12:45:51.162Z,40.68
2023-04-25T12:48:17.903Z,44.62
2023-04-25T12:50:44.758Z,40.54
2023-04-25T12:53:12.435Z,40.45
2023-04-25T12:55:38.868Z,37.42
2023-04-25T12:58:05.322Z,36.55
2023-04-25T13:00:32.686Z,36.42
2023-04-25T13:02:59.552Z,36.89
2023-04-25T13:05:26.773Z,37.36
2023-04-25T13:07:53.274Z,37.11
2023-04-25T13:10:19.755Z,36.62
2023-04-25T13:12:46.974Z,35.98
2023-04-25T13:15:13.472Z,39.92
2023-04-25T13:17:40.029Z,41.56
2023-04-25T13:20:10.484Z,41.70
2023-04-25T13:22:38.754Z,43.77
2023-04-25T13:25:06.670Z,40.50
2023-04-25T13:27:34.823Z,40.25
2023-04-25T13:30:02.257Z,37.30
2023-04-25T13:32:28.763Z,37.07
2023-04-25T13:34:55.409Z,37.52
2023-04-25T13:37:24.987Z,39.32
2023-04-25T13:39:51.936Z,38.92
2023-04-25T13:42:18.896Z,38.29
2023-04-25T13:44:45.357Z,38.12
2023-04-25T13:47:12.173Z,39.07
2023-04-25T13:49:38.716Z,38.01
2023-04-25T13:52:05.153Z,39.17
2023-04-25T13:54:31.620Z,37.07
2023-04-25T13:57:00.168Z,38.64
2023-04-25T13:59:26.707Z,37.95
2023-04-25T14:01:53.334Z,37.62
2023-04-25T14:04:20.071Z,37.67
2023-04-25T14:06:46.650Z,41.17
2023-04-25T14:09:13.557Z,40.11
2023-04-25T14:11:40.225Z,38.59
2023-04-25T14:14:06.744Z,38.07
2023-04-25T14:16:33.368Z,38.87
2023-04-25T14:18:59.852Z,38.60
2023-04-25T14:21:26.381Z,39.77
2023-04-25T14:23:53.052Z,38.45
2023-04-25T14:26:19.948Z,40.22
2023-04-25T14:28:46.622Z,38.51
2023-04-25T14:31:13.152Z,39.72
2023-04-25T14:33:43.121Z,40.43
2023-04-25T14:36:09.776Z,39.87
2023-04-25T14:38:36.217Z,40.67
2023-04-25T14:41:02.664Z,41.94
2023-04-25T14:43:29.155Z,42.33
2023-04-25T14:45:58.269Z,41.04
2023-04-25T14:48:25.327Z,40.74
2023-04-25T14:50:51.977Z,41.50
2023-04-25T14:53:18.425Z,40.91
2023-04-25T14:55:44.897Z,41.81
2023-04-25T14:58:11.359Z,43.38
2023-04-25T15:00:38.316Z,44.12
2023-04-25T15:03:05.134Z,42.73
2023-04-25T15:05:31.760Z,45.29
2023-04-25T15:07:58.282Z,44.19
2023-04-25T15:10:24.737Z,43.38
2023-04-25T15:12:51.698Z,43.44
2023-04-25T15:15:25.922Z,45.24
2023-04-25T15:17:58.790Z,45.03
2023-04-25T15:20:26.075Z,43.46
2023-04-25T15:22:52.732Z,43.08
2023-04-25T15:25:19.813Z,42.31
2023-04-25T15:27:49.110Z,43.27
2023-04-25T15:30:16.693Z,43.89
2023-04-25T15:32:43.497Z,45.56
2023-04-25T15:35:10.424Z,45.51
2023-04-25T15:37:37.548Z,44.03
2023-04-25T15:40:13.557Z,42.56
2023-04-25T15:42:41.580Z,43.10
2023-04-25T15:45:09.129Z,42.84
2023-04-25T15:47:36.084Z,44.24
2023-04-25T15:50:02.786Z,45.27
2023-04-25T15:52:29.543Z,45.92
2023-04-25T15:54:56.041Z,46.08
2023-04-25T15:57:22.649Z,45.39
2023-04-25T15:59:50.058Z,44.14
2023-04-25T16:02:16.908Z,42.89
2023-04-25T16:04:43.861Z,44.61
2023-04-25T16:07:10.487Z,43.89
2023-04-25T16:09:37.419Z,42.25
2023-04-25T16:12:04.084Z,43.12
2023-04-25T16:14:31.339Z,42.50
2023-04-25T16:17:00.134Z,43.41
2023-04-25T16:19:27.153Z,40.10
2023-04-25T16:21:54.116Z,40.64
2023-04-25T16:24:20.774Z,39.48
2023-04-25T16:26:47.354Z,39.86
2023-04-25T16:29:16.784Z,40.88
2023-04-25T16:31:43.829Z,41.17
2023-04-25T16:34:10.433Z,41.73
2023-04-25T16:36:36.850Z,42.59
2023-04-25T16:39:03.613Z,42.73
2023-04-25T16:41:30.347Z,38.11
2023-04-25T16:43:56.847Z,38.64
2023-04-25T16:46:23.852Z,38.74
2023-04-25T16:48:50.746Z,37.61
2023-04-25T16:51:17.652Z,36.59
2023-04-25T16:53:44.639Z,37.78
2023-04-25T16:56:11.205Z,43.97
2023-04-25T16:58:37.833Z,45.58
2023-04-25T17:01:04.468Z,46.26
2023-04-25T17:03:34.699Z,42.91
2023-04-25T17:06:02.264Z,45.16
2023-04-25T17:08:29.451Z,45.60
2023-04-25T17:10:56.019Z,41.01
2023-04-25T17:13:31.040Z,38.81
2023-04-25T17:15:58.142Z,37.23
2023-04-25T17:18:24.922Z,36.48
2023-04-25T17:20:52.308Z,36.45
2023-04-25T17:23:19.173Z,36.97
2023-04-25T17:25:45.716Z,37.51
2023-04-25T17:28:13.036Z,38.40
2023-04-25T17:30:39.701Z,39.35
2023-04-25T17:33:07.105Z,39.45
2023-04-25T17:35:36.760Z,38.94
2023-04-25T17:38:04.217Z,38.96
2023-04-25T17:40:31.362Z,39.21
2023-04-25T17:42:57.832Z,38.50
2023-04-25T17:45:24.313Z,39.10
2023-04-25T17:47:50.823Z,39.37
2023-04-25T17:50:17.437Z,39.82
2023-04-25T17:52:45.084Z,40.17
2023-04-25T17:55:11.681Z,39.59
2023-04-25T17:57:38.176Z,40.71
2023-04-25T18:00:07.886Z,40.33
2023-04-25T18:02:38.899Z,40.71
2023-04-25T18:05:09.302Z,41.22
2023-04-25T18:07:36.534Z,41.38
2023-04-25T18:10:05.893Z,41.71
2023-04-25T18:12:33.744Z,41.89
2023-04-25T18:15:01.006Z,41.71
2023-04-25T18:17:27.744Z,42.26
2023-04-25T18:19:55.386Z,42.71
2023-04-25T18:22:22.304Z,42.03
2023-04-25T18:24:49.999Z,42.26
2023-04-25T18:27:17.330Z,42.38
2023-04-25T18:29:45.476Z,42.58
2023-04-25T18:32:12.527Z,42.02
2023-04-25T18:34:41.540Z,42.86
2023-04-25T18:37:08.375Z,43.56
2023-04-25T18:39:34.855Z,43.17
2023-04-25T18:42:06.487Z,43.30
2023-04-25T18:44:39.506Z,43.94
2023-04-25T18:47:10.313Z,44.32
2023-04-25T18:49:37.718Z,43.84
2023-04-25T18:52:04.983Z,44.43
2023-04-25T18:54:32.158Z,44.07
2023-04-25T18:57:00.971Z,45.60
2023-04-25T18:59:27.830Z,45.38
2023-04-25T19:01:54.430Z,44.65
2023-04-25T19:04:21.468Z,45.20
2023-04-25T19:06:50.989Z,44.85
2023-04-25T19:09:18.316Z,45.57
2023-04-25T19:11:45.363Z,45.85
2023-04-25T19:14:13.361Z,46.15
2023-04-25T19:16:39.943Z,45.61
2023-04-25T19:19:07.659Z,45.07
2023-04-25T19:21:34.598Z,45.75
2023-04-25T19:24:02.011Z,45.97
2023-04-25T19:26:28.580Z,45.80
2023-04-25T19:29:06.010Z,45.82
2023-04-25T19:31:33.494Z,45.97
2023-04-25T19:34:00.292Z,46.66
2023-04-25T19:36:28.522Z,46.61
2023-04-25T19:38:55.043Z,46.50
2023-04-25T19:41:21.617Z,48.53
2023-04-25T19:43:48.132Z,49.07
2023-04-25T19:46:14.797Z,48.48
2023-04-25T19:48:41.478Z,48.80
2023-04-25T19:51:09.079Z,48.11
2023-04-25T19:53:35.668Z,49.05
2023-04-25T19:56:02.884Z,49.17
2023-04-25T19:58:29.834Z,48.65
2023-04-25T20:00:57.612Z,50.12
2023-04-25T20:03:24.349Z,51.88
2023-04-25T20:05:50.994Z,53.81
2023-04-25T20:08:17.479Z,55.14
2023-04-25T20:10:44.088Z,55.28
2023-04-25T20:13:10.914Z,58.17
2023-04-25T20:15:37.678Z,56.78
2023-04-25T20:18:04.578Z,56.08
2023-04-25T20:20:31.141Z,57.46
2023-04-25T20:22:57.682Z,57.50
2023-04-25T20:25:24.293Z,57.91
2023-04-25T20:27:51.226Z,56.07
2023-04-25T20:30:18.429Z,57.14
2023-04-25T20:32:45.254Z,57.04
2023-04-25T20:35:12.601Z,58.07
2023-04-25T20:37:39.185Z,57.92
2023-04-25T20:40:07.524Z,58.37
2023-04-25T20:42:34.307Z,59.40
2023-04-25T20:45:00.835Z,59.02
2023-04-25T20:47:27.541Z,58.04
2023-04-25T20:49:54.022Z,59.04
2023-04-25T20:52:20.525Z,60.60
2023-04-25T20:54:50.681Z,60.98
2023-04-25T20:57:17.626Z,59.01
2023-04-25T20:59:44.779Z,60.00
2023-04-25T21:02:12.321Z,60.31
2023-04-25T21:04:38.883Z,59.75
2023-04-25T21:07:05.361Z,60.80
2023-04-25T21:09:31.823Z,61.15
2023-04-25T21:11:59.612Z,61.77
2023-04-25T21:14:26.337Z,63.15
2023-04-25T21:16:52.803Z,64.09
2023-04-25T21:19:19.384Z,64.17
2023-04-25T21:21:45.870Z,64.93
2023-04-25T21:24:14.147Z,65.23
2023-04-25T21:26:40.843Z,64.21
2023-04-25T21:29:07.405Z,65.90
2023-04-25T21:31:34.005Z,65.30
2023-04-25T21:34:00.674Z,65.80
2023-04-25T21:36:27.803Z,66.93
2023-04-25T21:38:54.562Z,66.66
2023-04-25T21:41:22.524Z,66.58
2023-04-25T21:43:49.026Z,67.44
2023-04-25T21:46:23.540Z,66.83
2023-04-25T21:48:51.577Z,66.07
2023-04-25T21:51:18.576Z,67.04
2023-04-25T21:53:45.078Z,68.00
2023-04-25T21:56:12.387Z,67.69
2023-04-25T21:58:38.874Z,67.50
2023-04-25T22:01:05.436Z,65.96
2023-04-25T22:03:32.762Z,66.23
2023-04-25T22:05:59.417Z,66.27
2023-04-25T22:08:25.962Z,67.34
2023-04-25T22:10:53.243Z,66.72
2023-04-25T22:13:20.196Z,67.09
2023-04-25T22:15:48.549Z,67.71
2023-04-25T22:18:16.292Z,67.38
2023-04-25T22:20:44.202Z,68.43
2023-04-25T22:23:11.976Z,67.79
2023-04-25T22:25:38.681Z,68.80
2023-04-25T22:28:05.284Z,67.07
2023-04-25T22:30:32.343Z,66.60
2023-04-25T22:32:58.859Z,66.24
2023-04-25T22:35:25.453Z,66.00
2023-04-25T22:37:51.965Z,65.30
2023-04-25T22:40:18.436Z,64.94
2023-04-25T22:42:44.948Z,66.52
2023-04-25T22:45:12.433Z,65.19
2023-04-25T22:47:39.534Z,65.84
2023-04-25T22:50:08.475Z,66.39
2023-04-25T22:52:35.090Z,66.27
2023-04-25T22:55:03.113Z,66.82
2023-04-25T22:57:29.856Z,66.56
2023-04-25T22:59:56.488Z,69.17
2023-04-25T23:02:25.006Z,70.06
2023-04-25T23:04:53.235Z,70.04
2023-04-25T23:07:20.136Z,69.69
2023-04-25T23:09:46.686Z,70.78
2023-04-25T23:12:13.182Z,71.36
2023-04-25T23:14:39.719Z,71.15
2023-04-25T23:17:06.693Z,71.06
2023-04-25T23:19:34.364Z,72.12
2023-04-25T23:22:00.976Z,74.04
2023-04-25T23:24:27.508Z,74.34
2023-04-25T23:26:53.984Z,73.76
2023-04-25T23:29:20.994Z,73.68
2023-04-25T23:31:47.438Z,74.74
2023-04-25T23:34:13.925Z,74.86
2023-04-25T23:36:40.423Z,74.55
2023-04-25T23:39:09.305Z,75.43
2023-04-25T23:41:35.782Z,76.35
2023-04-25T23:44:03.466Z,75.82
2023-04-25T23:46:30.968Z,75.60
2023-04-25T23:48:57.705Z,75.67
2023-04-25T23:51:25.229Z,75.52
2023-04-25T23:53:51.855Z,74.63
2023-04-25T23:56:18.354Z,75.22
2023-04-25T23:58:44.795Z,75.38
